If you wish to contribute or participate in the discussions about articles you are invited to join SKYbrary as a registered user

 Actions

Gachsaran Airport

From SKYbrary Wiki

OIAH
Airport
ICAO: OIAH – IATA: GCH
Summary
Name Gachsaran Airport
Region Middle East
Territory Iran IR.gif
Location Sharak-E-Hedyat, Kohgiluyeh and Boer-Ahmad Province
Serving Gachsaran
Elevation 735.787 m
2,414 ft735.787 m
Coordinates 30° 20' 9.52" N, 50° 49' 50.44" E
Runways
Designator Length Width Surface ROPS
12/30 1850 m6,069.554 ft
45 m147.638 ft
ASP /


METAR
Observation OIAH 242200Z 00000KT CAVOK 12/02 Q1017
Station Gach Saran Du Gunbadan
Date/Time 24 April 2019 22:00:00
Wind direction
Wind speed 00 kts
Lowest cloud amount clouds and visibility OK
Temperature 12°C
Dew point 2°C
Humidity 50%
QNH 1017 hPa
Weather condition n/a

Airport serving Gachsaran, Iran,

Climatology

Warm Desert climate (Köppen climate classification BWh).

Maps

Terrain

Loading map...

Airport Layout

Loading map...


Accidents & Serious Incidents at or in vicinity of OIAH

None on SKYbrary